sensor_id;sensor_type;location;lat;lon;timestamp;temperature;humidity
2749;DHT22;1382;52.142;11.618;2022-10-16T00:01:36;20.30;56.40
2749;DHT22;1382;52.142;11.618;2022-10-16T00:04:03;20.30;56.50
2749;DHT22;1382;52.142;11.618;2022-10-16T00:06:31;20.30;56.30
2749;DHT22;1382;52.142;11.618;2022-10-16T00:08:58;20.30;56.40
2749;DHT22;1382;52.142;11.618;2022-10-16T00:11:26;20.40;56.80
2749;DHT22;1382;52.142;11.618;2022-10-16T00:13:56;20.30;56.40
2749;DHT22;1382;52.142;11.618;2022-10-16T00:16:23;20.20;56.30
2749;DHT22;1382;52.142;11.618;2022-10-16T00:18:52;20.20;56.20
2749;DHT22;1382;52.142;11.618;2022-10-16T00:21:21;20.20;56.40
2749;DHT22;1382;52.142;11.618;2022-10-16T00:23:50;20.20;56.20
2749;DHT22;1382;52.142;11.618;2022-10-16T00:26:18;20.20;56.20
2749;DHT22;1382;52.142;11.618;2022-10-16T00:28:46;20.20;56.20
2749;DHT22;1382;52.142;11.618;2022-10-16T00:31:13;20.30;56.30
2749;DHT22;1382;52.142;11.618;2022-10-16T00:33:40;20.10;56.30
2749;DHT22;1382;52.142;11.618;2022-10-16T00:36:11;20.10;56.30
2749;DHT22;1382;52.142;11.618;2022-10-16T00:38:38;20.10;56.50
2749;DHT22;1382;52.142;11.618;2022-10-16T00:41:05;20.10;56.20
2749;DHT22;1382;52.142;11.618;2022-10-16T00:43:37;20.10;56.40
2749;DHT22;1382;52.142;11.618;2022-10-16T00:46:07;20.10;56.20
2749;DHT22;1382;52.142;11.618;2022-10-16T00:48:36;20.00;55.80
2749;DHT22;1382;52.142;11.618;2022-10-16T00:51:04;20.00;55.70
2749;DHT22;1382;52.142;11.618;2022-10-16T00:53:34;20.00;55.70
2749;DHT22;1382;52.142;11.618;2022-10-16T00:56:02;20.00;55.60
2749;DHT22;1382;52.142;11.618;2022-10-16T00:58:29;20.00;55.70
2749;DHT22;1382;52.142;11.618;2022-10-16T01:00:55;20.00;55.90
2749;DHT22;1382;52.142;11.618;2022-10-16T01:03:25;19.90;55.60
2749;DHT22;1382;52.142;11.618;2022-10-16T01:06:06;19.90;55.50
2749;DHT22;1382;52.142;11.618;2022-10-16T01:08:45;19.90;55.70
2749;DHT22;1382;52.142;11.618;2022-10-16T01:11:22;19.90;55.70
2749;DHT22;1382;52.142;11.618;2022-10-16T01:13:53;20.00;56.80
2749;DHT22;1382;52.142;11.618;2022-10-16T01:16:28;19.80;56.10
2749;DHT22;1382;52.142;11.618;2022-10-16T01:19:01;19.90;55.80
2749;DHT22;1382;52.142;11.618;2022-10-16T01:21:33;19.90;55.90
2749;DHT22;1382;52.142;11.618;2022-10-16T01:24:08;19.80;56.00
2749;DHT22;1382;52.142;11.618;2022-10-16T01:29:26;19.80;56.00
2749;DHT22;1382;52.142;11.618;2022-10-16T01:31:58;19.80;55.90
2749;DHT22;1382;52.142;11.618;2022-10-16T01:34:31;19.70;55.80
2749;DHT22;1382;52.142;11.618;2022-10-16T01:37:04;19.80;56.10
2749;DHT22;1382;52.142;11.618;2022-10-16T01:39:34;19.70;55.90
2749;DHT22;1382;52.142;11.618;2022-10-16T01:42:06;19.70;55.80
2749;DHT22;1382;52.142;11.618;2022-10-16T01:44:37;19.80;55.90
2749;DHT22;1382;52.142;11.618;2022-10-16T01:47:06;19.70;55.80
2749;DHT22;1382;52.142;11.618;2022-10-16T01:49:36;19.70;55.70
2749;DHT22;1382;52.142;11.618;2022-10-16T01:52:06;19.70;55.70
2749;DHT22;1382;52.142;11.618;2022-10-16T01:54:36;19.70;55.50
2749;DHT22;1382;52.142;11.618;2022-10-16T01:57:05;19.70;55.40
2749;DHT22;1382;52.142;11.618;2022-10-16T01:59:40;19.70;55.30
2749;DHT22;1382;52.142;11.618;2022-10-16T02:02:09;19.70;55.20
2749;DHT22;1382;52.142;11.618;2022-10-16T02:04:39;19.60;54.80
2749;DHT22;1382;52.142;11.618;2022-10-16T02:07:07;19.60;55.00
2749;DHT22;1382;52.142;11.618;2022-10-16T02:09:34;19.60;54.80
2749;DHT22;1382;52.142;11.618;2022-10-16T02:12:08;19.80;54.60
2749;DHT22;1382;52.142;11.618;2022-10-16T02:14:38;19.60;54.50
2749;DHT22;1382;52.142;11.618;2022-10-16T02:17:11;19.60;54.50
2749;DHT22;1382;52.142;11.618;2022-10-16T02:19:38;19.60;54.90
2749;DHT22;1382;52.142;11.618;2022-10-16T02:22:16;19.60;54.00
2749;DHT22;1382;52.142;11.618;2022-10-16T02:24:50;19.60;54.00
2749;DHT22;1382;52.142;11.618;2022-10-16T02:27:25;19.50;54.20
2749;DHT22;1382;52.142;11.618;2022-10-16T02:29:59;19.50;54.30
2749;DHT22;1382;52.142;11.618;2022-10-16T02:32:30;19.50;54.30
2749;DHT22;1382;52.142;11.618;2022-10-16T02:34:59;19.50;54.20
2749;DHT22;1382;52.142;11.618;2022-10-16T02:37:27;19.50;54.10
2749;DHT22;1382;52.142;11.618;2022-10-16T02:39:55;19.50;54.30
2749;DHT22;1382;52.142;11.618;2022-10-16T02:42:28;19.50;54.40
2749;DHT22;1382;52.142;11.618;2022-10-16T02:44:56;19.60;54.20
2749;DHT22;1382;52.142;11.618;2022-10-16T02:47:23;19.40;53.90
2749;DHT22;1382;52.142;11.618;2022-10-16T02:49:50;19.60;54.00
2749;DHT22;1382;52.142;11.618;2022-10-16T02:52:17;19.40;53.90
2749;DHT22;1382;52.142;11.618;2022-10-16T02:54:43;19.40;54.10
2749;DHT22;1382;52.142;11.618;2022-10-16T02:57:10;19.40;54.20
2749;DHT22;1382;52.142;11.618;2022-10-16T02:59:37;19.40;54.30
2749;DHT22;1382;52.142;11.618;2022-10-16T03:02:05;19.30;54.30
2749;DHT22;1382;52.142;11.618;2022-10-16T03:04:32;19.30;54.10
2749;DHT22;1382;52.142;11.618;2022-10-16T03:06:59;19.40;54.10
2749;DHT22;1382;52.142;11.618;2022-10-16T03:09:26;19.30;53.90
2749;DHT22;1382;52.142;11.618;2022-10-16T03:11:54;19.30;53.90
2749;DHT22;1382;52.142;11.618;2022-10-16T03:14:21;19.30;53.90
2749;DHT22;1382;52.142;11.618;2022-10-16T03:16:48;19.30;54.00
2749;DHT22;1382;52.142;11.618;2022-10-16T03:19:17;19.30;53.80
2749;DHT22;1382;52.142;11.618;2022-10-16T03:21:44;19.20;53.80
2749;DHT22;1382;52.142;11.618;2022-10-16T03:24:11;19.20;53.70
2749;DHT22;1382;52.142;11.618;2022-10-16T03:26:38;19.20;53.60
2749;DHT22;1382;52.142;11.618;2022-10-16T03:29:05;19.20;53.70
2749;DHT22;1382;52.142;11.618;2022-10-16T03:31:32;19.20;53.90
2749;DHT22;1382;52.142;11.618;2022-10-16T03:33:59;19.20;53.70
2749;DHT22;1382;52.142;11.618;2022-10-16T03:36:27;19.20;53.70
2749;DHT22;1382;52.142;11.618;2022-10-16T03:38:54;19.30;54.10
2749;DHT22;1382;52.142;11.618;2022-10-16T03:41:20;19.20;54.20
2749;DHT22;1382;52.142;11.618;2022-10-16T03:43:47;19.30;54.10
2749;DHT22;1382;52.142;11.618;2022-10-16T03:46:14;19.10;53.80
2749;DHT22;1382;52.142;11.618;2022-10-16T03:48:41;19.10;53.60
2749;DHT22;1382;52.142;11.618;2022-10-16T03:51:07;19.20;53.70
2749;DHT22;1382;52.142;11.618;2022-10-16T03:53:36;19.20;54.10
2749;DHT22;1382;52.142;11.618;2022-10-16T03:56:02;19.20;54.40
2749;DHT22;1382;52.142;11.618;2022-10-16T03:58:29;19.20;54.40
2749;DHT22;1382;52.142;11.618;2022-10-16T04:00:56;19.20;55.10
2749;DHT22;1382;52.142;11.618;2022-10-16T04:03:23;19.10;54.20
2749;DHT22;1382;52.142;11.618;2022-10-16T04:05:50;19.20;54.20
2749;DHT22;1382;52.142;11.618;2022-10-16T04:08:17;19.10;54.10
2749;DHT22;1382;52.142;11.618;2022-10-16T04:10:45;19.10;54.10
2749;DHT22;1382;52.142;11.618;2022-10-16T04:13:12;19.20;54.40
2749;DHT22;1382;52.142;11.618;2022-10-16T04:15:39;19.10;54.50
2749;DHT22;1382;52.142;11.618;2022-10-16T04:18:06;19.10;54.20
2749;DHT22;1382;52.142;11.618;2022-10-16T04:20:33;19.20;54.20
2749;DHT22;1382;52.142;11.618;2022-10-16T04:23:00;19.20;54.00
2749;DHT22;1382;52.142;11.618;2022-10-16T04:25:27;19.20;54.00
2749;DHT22;1382;52.142;11.618;2022-10-16T04:27:55;19.10;54.30
2749;DHT22;1382;52.142;11.618;2022-10-16T04:30:22;19.00;54.60
2749;DHT22;1382;52.142;11.618;2022-10-16T04:32:50;19.00;54.70
2749;DHT22;1382;52.142;11.618;2022-10-16T04:35:17;19.00;54.80
2749;DHT22;1382;52.142;11.618;2022-10-16T04:37:44;19.00;54.90
2749;DHT22;1382;52.142;11.618;2022-10-16T04:40:11;19.00;55.00
2749;DHT22;1382;52.142;11.618;2022-10-16T04:42:38;19.00;54.90
2749;DHT22;1382;52.142;11.618;2022-10-16T04:45:07;19.00;55.00
2749;DHT22;1382;52.142;11.618;2022-10-16T04:47:40;19.00;55.50
2749;DHT22;1382;52.142;11.618;2022-10-16T04:50:08;19.00;55.40
2749;DHT22;1382;52.142;11.618;2022-10-16T04:52:34;19.00;55.20
2749;DHT22;1382;52.142;11.618;2022-10-16T04:55:07;19.00;55.00
2749;DHT22;1382;52.142;11.618;2022-10-16T04:57:34;19.00;55.00
2749;DHT22;1382;52.142;11.618;2022-10-16T05:00:00;18.90;54.30
2749;DHT22;1382;52.142;11.618;2022-10-16T05:02:29;18.90;54.10
2749;DHT22;1382;52.142;11.618;2022-10-16T05:04:56;19.00;54.00
2749;DHT22;1382;52.142;11.618;2022-10-16T05:07:22;18.90;53.90
2749;DHT22;1382;52.142;11.618;2022-10-16T05:09:50;18.90;53.60
2749;DHT22;1382;52.142;11.618;2022-10-16T05:12:16;18.90;53.80
2749;DHT22;1382;52.142;11.618;2022-10-16T05:14:43;18.80;53.90
2749;DHT22;1382;52.142;11.618;2022-10-16T05:17:10;18.80;53.60
2749;DHT22;1382;52.142;11.618;2022-10-16T05:19:38;18.80;53.50
2749;DHT22;1382;52.142;11.618;2022-10-16T05:22:05;18.70;53.50
2749;DHT22;1382;52.142;11.618;2022-10-16T05:24:32;18.70;53.50
2749;DHT22;1382;52.142;11.618;2022-10-16T05:26:58;18.70;53.30
2749;DHT22;1382;52.142;11.618;2022-10-16T05:29:25;18.70;53.20
2749;DHT22;1382;52.142;11.618;2022-10-16T05:31:53;18.70;53.20
2749;DHT22;1382;52.142;11.618;2022-10-16T05:34:20;18.70;53.10
2749;DHT22;1382;52.142;11.618;2022-10-16T05:36:48;18.60;53.00
2749;DHT22;1382;52.142;11.618;2022-10-16T05:39:16;18.60;53.10
2749;DHT22;1382;52.142;11.618;2022-10-16T05:41:43;18.50;52.90
2749;DHT22;1382;52.142;11.618;2022-10-16T05:44:10;18.50;52.70
2749;DHT22;1382;52.142;11.618;2022-10-16T05:46:37;18.50;52.90
2749;DHT22;1382;52.142;11.618;2022-10-16T05:49:03;18.50;53.10
2749;DHT22;1382;52.142;11.618;2022-10-16T05:51:30;18.40;53.20
2749;DHT22;1382;52.142;11.618;2022-10-16T05:53:58;18.40;54.00
2749;DHT22;1382;52.142;11.618;2022-10-16T05:56:25;18.40;54.30
2749;DHT22;1382;52.142;11.618;2022-10-16T05:58:52;18.40;54.40
2749;DHT22;1382;52.142;11.618;2022-10-16T06:01:19;18.50;54.90
2749;DHT22;1382;52.142;11.618;2022-10-16T06:03:46;18.30;54.40
2749;DHT22;1382;52.142;11.618;2022-10-16T06:06:15;18.30;54.20
2749;DHT22;1382;52.142;11.618;2022-10-16T06:08:43;18.30;54.10
2749;DHT22;1382;52.142;11.618;2022-10-16T06:11:13;18.40;54.00
2749;DHT22;1382;52.142;11.618;2022-10-16T06:13:41;18.20;53.70
2749;DHT22;1382;52.142;11.618;2022-10-16T06:16:08;18.20;53.50
2749;DHT22;1382;52.142;11.618;2022-10-16T06:18:35;18.20;53.60
2749;DHT22;1382;52.142;11.618;2022-10-16T06:21:08;18.20;54.00
2749;DHT22;1382;52.142;11.618;2022-10-16T06:23:35;18.20;54.70
2749;DHT22;1382;52.142;11.618;2022-10-16T06:26:06;18.20;54.50
2749;DHT22;1382;52.142;11.618;2022-10-16T06:28:34;18.20;54.50
2749;DHT22;1382;52.142;11.618;2022-10-16T06:31:02;18.20;54.80
2749;DHT22;1382;52.142;11.618;2022-10-16T06:33:34;18.20;55.00
2749;DHT22;1382;52.142;11.618;2022-10-16T06:36:02;18.20;55.10
2749;DHT22;1382;52.142;11.618;2022-10-16T06:38:29;18.20;55.40
2749;DHT22;1382;52.142;11.618;2022-10-16T06:40:56;18.40;56.30
2749;DHT22;1382;52.142;11.618;2022-10-16T06:43:23;18.20;56.20
2749;DHT22;1382;52.142;11.618;2022-10-16T06:45:52;18.20;56.00
2749;DHT22;1382;52.142;11.618;2022-10-16T06:48:19;18.30;56.50
2749;DHT22;1382;52.142;11.618;2022-10-16T06:50:56;18.30;56.30
2749;DHT22;1382;52.142;11.618;2022-10-16T06:53:23;18.30;56.20
2749;DHT22;1382;52.142;11.618;2022-10-16T06:55:49;18.30;56.10
2749;DHT22;1382;52.142;11.618;2022-10-16T06:58:16;18.30;56.70
2749;DHT22;1382;52.142;11.618;2022-10-16T07:00:43;18.30;56.90
2749;DHT22;1382;52.142;11.618;2022-10-16T07:03:12;18.30;57.50
2749;DHT22;1382;52.142;11.618;2022-10-16T07:05:38;18.40;57.50
2749;DHT22;1382;52.142;11.618;2022-10-16T07:08:05;18.40;57.30
2749;DHT22;1382;52.142;11.618;2022-10-16T07:10:33;18.50;57.50
2749;DHT22;1382;52.142;11.618;2022-10-16T07:13:00;18.50;57.80
2749;DHT22;1382;52.142;11.618;2022-10-16T07:15:27;18.40;57.70
2749;DHT22;1382;52.142;11.618;2022-10-16T07:17:54;18.50;57.80
2749;DHT22;1382;52.142;11.618;2022-10-16T07:20:23;18.50;57.60
2749;DHT22;1382;52.142;11.618;2022-10-16T07:22:50;18.60;57.80
2749;DHT22;1382;52.142;11.618;2022-10-16T07:25:17;18.60;57.40
2749;DHT22;1382;52.142;11.618;2022-10-16T07:27:43;18.60;58.00
2749;DHT22;1382;52.142;11.618;2022-10-16T07:30:10;18.60;58.20
2749;DHT22;1382;52.142;11.618;2022-10-16T07:32:37;18.90;58.20
2749;DHT22;1382;52.142;11.618;2022-10-16T07:35:05;18.70;58.40
2749;DHT22;1382;52.142;11.618;2022-10-16T07:37:33;18.70;57.90
2749;DHT22;1382;52.142;11.618;2022-10-16T07:40:00;18.70;58.10
2749;DHT22;1382;52.142;11.618;2022-10-16T07:42:27;18.80;58.30
2749;DHT22;1382;52.142;11.618;2022-10-16T07:44:55;18.90;58.50
2749;DHT22;1382;52.142;11.618;2022-10-16T07:47:22;18.80;58.50
2749;DHT22;1382;52.142;11.618;2022-10-16T07:49:49;18.90;58.60
2749;DHT22;1382;52.142;11.618;2022-10-16T07:52:16;18.90;58.60
2749;DHT22;1382;52.142;11.618;2022-10-16T07:54:45;18.90;58.60
2749;DHT22;1382;52.142;11.618;2022-10-16T07:57:11;18.90;58.60
2749;DHT22;1382;52.142;11.618;2022-10-16T07:59:38;19.00;58.70
2749;DHT22;1382;52.142;11.618;2022-10-16T08:02:05;19.00;58.80
2749;DHT22;1382;52.142;11.618;2022-10-16T08:04:32;19.00;58.50
2749;DHT22;1382;52.142;11.618;2022-10-16T08:06:59;19.10;58.90
2749;DHT22;1382;52.142;11.618;2022-10-16T08:09:25;19.10;58.20
2749;DHT22;1382;52.142;11.618;2022-10-16T08:11:53;19.20;58.70
2749;DHT22;1382;52.142;11.618;2022-10-16T08:14:26;19.10;58.90
2749;DHT22;1382;52.142;11.618;2022-10-16T08:16:53;19.20;58.70
2749;DHT22;1382;52.142;11.618;2022-10-16T08:19:20;19.20;58.30
2749;DHT22;1382;52.142;11.618;2022-10-16T08:21:47;19.20;58.60
2749;DHT22;1382;52.142;11.618;2022-10-16T08:24:14;19.20;58.30
2749;DHT22;1382;52.142;11.618;2022-10-16T08:26:40;19.30;58.20
2749;DHT22;1382;52.142;11.618;2022-10-16T08:29:08;19.20;58.10
2749;DHT22;1382;52.142;11.618;2022-10-16T08:31:35;19.30;58.50
2749;DHT22;1382;52.142;11.618;2022-10-16T08:34:02;19.30;59.00
2749;DHT22;1382;52.142;11.618;2022-10-16T08:36:29;19.30;58.60
2749;DHT22;1382;52.142;11.618;2022-10-16T08:38:55;19.40;58.40
2749;DHT22;1382;52.142;11.618;2022-10-16T08:41:48;19.40;58.50
2749;DHT22;1382;52.142;11.618;2022-10-16T08:44:39;19.50;58.50
2749;DHT22;1382;52.142;11.618;2022-10-16T08:47:16;19.60;58.20
2749;DHT22;1382;52.142;11.618;2022-10-16T08:49:55;19.60;58.50
2749;DHT22;1382;52.142;11.618;2022-10-16T08:52:22;19.80;58.50
2749;DHT22;1382;52.142;11.618;2022-10-16T08:54:51;19.80;58.10
2749;DHT22;1382;52.142;11.618;2022-10-16T08:57:22;19.90;58.00
2749;DHT22;1382;52.142;11.618;2022-10-16T08:59:51;20.00;57.60
2749;DHT22;1382;52.142;11.618;2022-10-16T09:02:29;20.20;57.90
2749;DHT22;1382;52.142;11.618;2022-10-16T09:05:16;20.20;57.60
2749;DHT22;1382;52.142;11.618;2022-10-16T09:07:50;20.30;57.60
2749;DHT22;1382;52.142;11.618;2022-10-16T09:10:33;20.40;57.70
2749;DHT22;1382;52.142;11.618;2022-10-16T09:13:14;20.50;57.30
2749;DHT22;1382;52.142;11.618;2022-10-16T09:15:49;20.60;57.20
2749;DHT22;1382;52.142;11.618;2022-10-16T09:18:23;20.70;57.00
2749;DHT22;1382;52.142;11.618;2022-10-16T09:21:01;20.80;56.70
2749;DHT22;1382;52.142;11.618;2022-10-16T09:23:33;20.80;56.70
2749;DHT22;1382;52.142;11.618;2022-10-16T09:26:01;20.90;56.60
2749;DHT22;1382;52.142;11.618;2022-10-16T09:28:29;21.10;56.40
2749;DHT22;1382;52.142;11.618;2022-10-16T09:30:57;21.20;56.50
2749;DHT22;1382;52.142;11.618;2022-10-16T09:33:27;21.10;56.20
2749;DHT22;1382;52.142;11.618;2022-10-16T09:35:56;21.20;56.00
2749;DHT22;1382;52.142;11.618;2022-10-16T09:38:27;21.30;55.70
2749;DHT22;1382;52.142;11.618;2022-10-16T09:40:55;21.40;55.60
2749;DHT22;1382;52.142;11.618;2022-10-16T09:43:32;21.40;55.30
2749;DHT22;1382;52.142;11.618;2022-10-16T09:46:03;21.50;55.20
2749;DHT22;1382;52.142;11.618;2022-10-16T09:48:36;21.50;55.20
2749;DHT22;1382;52.142;11.618;2022-10-16T09:51:05;21.60;54.90
2749;DHT22;1382;52.142;11.618;2022-10-16T09:53:39;21.70;55.00
2749;DHT22;1382;52.142;11.618;2022-10-16T09:56:06;21.70;54.80
2749;DHT22;1382;52.142;11.618;2022-10-16T09:58:42;21.80;55.10
2749;DHT22;1382;52.142;11.618;2022-10-16T10:01:13;21.90;55.00
2749;DHT22;1382;52.142;11.618;2022-10-16T10:03:41;21.90;55.20
2749;DHT22;1382;52.142;11.618;2022-10-16T10:06:18;22.00;54.90
2749;DHT22;1382;52.142;11.618;2022-10-16T10:08:56;22.20;54.70
2749;DHT22;1382;52.142;11.618;2022-10-16T10:11:38;22.20;54.80
2749;DHT22;1382;52.142;11.618;2022-10-16T10:14:05;22.40;55.20
2749;DHT22;1382;52.142;11.618;2022-10-16T10:16:34;22.50;54.60
2749;DHT22;1382;52.142;11.618;2022-10-16T10:19:01;22.50;54.60
2749;DHT22;1382;52.142;11.618;2022-10-16T10:21:28;22.70;54.20
2749;DHT22;1382;52.142;11.618;2022-10-16T10:23:55;22.80;54.20
2749;DHT22;1382;52.142;11.618;2022-10-16T10:26:24;23.00;53.70
2749;DHT22;1382;52.142;11.618;2022-10-16T10:28:57;23.10;53.30
2749;DHT22;1382;52.142;11.618;2022-10-16T10:31:34;23.20;52.70
2749;DHT22;1382;52.142;11.618;2022-10-16T10:34:15;23.30;52.20
2749;DHT22;1382;52.142;11.618;2022-10-16T10:36:50;23.40;52.00
2749;DHT22;1382;52.142;11.618;2022-10-16T10:39:25;23.40;51.90
2749;DHT22;1382;52.142;11.618;2022-10-16T10:42:04;23.60;51.90
2749;DHT22;1382;52.142;11.618;2022-10-16T10:44:57;23.50;51.70
2749;DHT22;1382;52.142;11.618;2022-10-16T10:47:40;23.70;51.00
2749;DHT22;1382;52.142;11.618;2022-10-16T10:50:16;23.60;51.10
2749;DHT22;1382;52.142;11.618;2022-10-16T10:52:53;23.70;50.80
2749;DHT22;1382;52.142;11.618;2022-10-16T10:55:29;23.70;50.20
2749;DHT22;1382;52.142;11.618;2022-10-16T10:58:27;23.80;50.10
2749;DHT22;1382;52.142;11.618;2022-10-16T11:01:06;23.70;50.30
2749;DHT22;1382;52.142;11.618;2022-10-16T11:03:46;23.70;50.70
2749;DHT22;1382;52.142;11.618;2022-10-16T11:06:26;23.80;50.50
2749;DHT22;1382;52.142;11.618;2022-10-16T11:08:58;23.70;50.10
2749;DHT22;1382;52.142;11.618;2022-10-16T11:11:32;23.70;49.90
2749;DHT22;1382;52.142;11.618;2022-10-16T11:14:05;23.80;50.10
2749;DHT22;1382;52.142;11.618;2022-10-16T11:16:38;23.70;49.40
2749;DHT22;1382;52.142;11.618;2022-10-16T11:19:13;23.80;48.90
2749;DHT22;1382;52.142;11.618;2022-10-16T11:21:46;23.80;49.40
2749;DHT22;1382;52.142;11.618;2022-10-16T11:24:19;23.90;49.40
2749;DHT22;1382;52.142;11.618;2022-10-16T11:26:49;23.90;49.00
2749;DHT22;1382;52.142;11.618;2022-10-16T11:29:25;24.10;49.00
2749;DHT22;1382;52.142;11.618;2022-10-16T11:31:55;24.10;48.40
2749;DHT22;1382;52.142;11.618;2022-10-16T11:34:29;24.10;48.30
2749;DHT22;1382;52.142;11.618;2022-10-16T11:37:08;24.10;47.90
2749;DHT22;1382;52.142;11.618;2022-10-16T11:39:38;24.10;48.40
2749;DHT22;1382;52.142;11.618;2022-10-16T11:42:09;24.10;47.90
2749;DHT22;1382;52.142;11.618;2022-10-16T11:44:53;24.10;47.60
2749;DHT22;1382;52.142;11.618;2022-10-16T11:47:30;24.30;47.20
2749;DHT22;1382;52.142;11.618;2022-10-16T11:50:23;24.20;46.80
2749;DHT22;1382;52.142;11.618;2022-10-16T11:52:55;24.20;46.90
2749;DHT22;1382;52.142;11.618;2022-10-16T11:55:27;24.20;47.70
2749;DHT22;1382;52.142;11.618;2022-10-16T11:57:59;24.30;46.80
2749;DHT22;1382;52.142;11.618;2022-10-16T12:00:31;24.30;46.80
2749;DHT22;1382;52.142;11.618;2022-10-16T12:03:04;24.30;47.10
2749;DHT22;1382;52.142;11.618;2022-10-16T12:05:51;24.30;46.40
2749;DHT22;1382;52.142;11.618;2022-10-16T12:08:19;24.30;47.30
2749;DHT22;1382;52.142;11.618;2022-10-16T12:10:47;24.40;46.00
2749;DHT22;1382;52.142;11.618;2022-10-16T12:13:31;24.30;46.60
2749;DHT22;1382;52.142;11.618;2022-10-16T12:16:07;24.40;47.40
2749;DHT22;1382;52.142;11.618;2022-10-16T12:18:46;24.40;46.50
2749;DHT22;1382;52.142;11.618;2022-10-16T12:21:16;24.40;45.60
2749;DHT22;1382;52.142;11.618;2022-10-16T12:23:48;24.50;45.10
2749;DHT22;1382;52.142;11.618;2022-10-16T12:26:24;24.60;45.10
2749;DHT22;1382;52.142;11.618;2022-10-16T12:28:51;24.70;44.60
2749;DHT22;1382;52.142;11.618;2022-10-16T12:31:18;24.70;45.10
2749;DHT22;1382;52.142;11.618;2022-10-16T12:33:56;24.80;45.90
2749;DHT22;1382;52.142;11.618;2022-10-16T12:36:30;24.90;45.00
2749;DHT22;1382;52.142;11.618;2022-10-16T12:38:58;25.00;44.60
2749;DHT22;1382;52.142;11.618;2022-10-16T12:41:28;25.20;43.10
2749;DHT22;1382;52.142;11.618;2022-10-16T12:43:56;25.00;42.80
2749;DHT22;1382;52.142;11.618;2022-10-16T12:46:38;25.00;43.50
2749;DHT22;1382;52.142;11.618;2022-10-16T12:49:22;25.10;42.60
2749;DHT22;1382;52.142;11.618;2022-10-16T12:51:57;25.00;44.80
2749;DHT22;1382;52.142;11.618;2022-10-16T12:54:28;25.10;44.60
2749;DHT22;1382;52.142;11.618;2022-10-16T12:57:12;25.10;43.70
2749;DHT22;1382;52.142;11.618;2022-10-16T12:59:51;25.20;44.00
2749;DHT22;1382;52.142;11.618;2022-10-16T13:02:54;25.30;44.20
2749;DHT22;1382;52.142;11.618;2022-10-16T13:05:31;25.30;44.50
2749;DHT22;1382;52.142;11.618;2022-10-16T13:08:09;25.30;43.70
2749;DHT22;1382;52.142;11.618;2022-10-16T13:10:41;25.50;43.90
2749;DHT22;1382;52.142;11.618;2022-10-16T13:13:34;25.40;43.30
2749;DHT22;1382;52.142;11.618;2022-10-16T13:16:12;25.50;43.70
2749;DHT22;1382;52.142;11.618;2022-10-16T13:18:49;25.40;43.00
2749;DHT22;1382;52.142;11.618;2022-10-16T13:21:33;25.50;43.00
2749;DHT22;1382;52.142;11.618;2022-10-16T13:24:13;25.50;43.10
2749;DHT22;1382;52.142;11.618;2022-10-16T13:26:49;25.60;41.70
2749;DHT22;1382;52.142;11.618;2022-10-16T13:29:19;25.60;41.80
2749;DHT22;1382;52.142;11.618;2022-10-16T13:31:46;25.70;42.00
2749;DHT22;1382;52.142;11.618;2022-10-16T13:34:17;25.60;41.10
2749;DHT22;1382;52.142;11.618;2022-10-16T13:36:47;25.70;40.80
2749;DHT22;1382;52.142;11.618;2022-10-16T13:39:21;25.70;40.80
2749;DHT22;1382;52.142;11.618;2022-10-16T13:42:01;25.80;40.20
2749;DHT22;1382;52.142;11.618;2022-10-16T13:44:37;25.90;40.80
2749;DHT22;1382;52.142;11.618;2022-10-16T13:47:10;25.70;40.10
2749;DHT22;1382;52.142;11.618;2022-10-16T13:49:41;25.80;38.20
2749;DHT22;1382;52.142;11.618;2022-10-16T13:52:17;25.80;40.40
2749;DHT22;1382;52.142;11.618;2022-10-16T13:54:45;25.90;39.10
2749;DHT22;1382;52.142;11.618;2022-10-16T13:57:13;25.80;39.10
2749;DHT22;1382;52.142;11.618;2022-10-16T13:59:53;25.90;38.20
2749;DHT22;1382;52.142;11.618;2022-10-16T14:02:25;25.70;40.50
2749;DHT22;1382;52.142;11.618;2022-10-16T14:04:53;25.80;40.30
2749;DHT22;1382;52.142;11.618;2022-10-16T14:07:24;25.70;38.90
2749;DHT22;1382;52.142;11.618;2022-10-16T14:09:53;25.70;38.40
2749;DHT22;1382;52.142;11.618;2022-10-16T14:12:22;25.60;38.70
2749;DHT22;1382;52.142;11.618;2022-10-16T14:14:54;25.60;39.40
2749;DHT22;1382;52.142;11.618;2022-10-16T14:17:24;25.60;39.70
2749;DHT22;1382;52.142;11.618;2022-10-16T14:19:54;25.70;40.00
2749;DHT22;1382;52.142;11.618;2022-10-16T14:22:34;25.60;40.50
2749;DHT22;1382;52.142;11.618;2022-10-16T14:25:27;25.50;39.90
2749;DHT22;1382;52.142;11.618;2022-10-16T14:28:03;25.50;40.20
2749;DHT22;1382;52.142;11.618;2022-10-16T14:30:34;25.50;40.90
2749;DHT22;1382;52.142;11.618;2022-10-16T14:33:24;25.60;40.10
2749;DHT22;1382;52.142;11.618;2022-10-16T14:36:03;25.40;40.10
2749;DHT22;1382;52.142;11.618;2022-10-16T14:38:31;25.40;40.80
2749;DHT22;1382;52.142;11.618;2022-10-16T14:41:00;25.40;39.80
2749;DHT22;1382;52.142;11.618;2022-10-16T14:43:32;25.50;40.80
2749;DHT22;1382;52.142;11.618;2022-10-16T14:46:01;25.30;40.30
2749;DHT22;1382;52.142;11.618;2022-10-16T14:48:29;25.20;40.40
2749;DHT22;1382;52.142;11.618;2022-10-16T14:50:56;25.20;39.90
2749;DHT22;1382;52.142;11.618;2022-10-16T14:53:24;25.10;40.80
2749;DHT22;1382;52.142;11.618;2022-10-16T14:55:51;25.20;40.40
2749;DHT22;1382;52.142;11.618;2022-10-16T14:58:21;25.10;39.20
2749;DHT22;1382;52.142;11.618;2022-10-16T15:00:49;25.00;40.80
2749;DHT22;1382;52.142;11.618;2022-10-16T15:03:16;25.00;40.30
2749;DHT22;1382;52.142;11.618;2022-10-16T15:05:46;25.00;41.10
2749;DHT22;1382;52.142;11.618;2022-10-16T15:08:13;24.90;40.50
2749;DHT22;1382;52.142;11.618;2022-10-16T15:10:42;24.90;40.40
2749;DHT22;1382;52.142;11.618;2022-10-16T15:13:12;24.90;41.30
2749;DHT22;1382;52.142;11.618;2022-10-16T15:15:42;24.90;42.00
2749;DHT22;1382;52.142;11.618;2022-10-16T15:18:10;24.80;41.60
2749;DHT22;1382;52.142;11.618;2022-10-16T15:20:38;24.80;41.40
2749;DHT22;1382;52.142;11.618;2022-10-16T15:23:10;24.70;40.50
2749;DHT22;1382;52.142;11.618;2022-10-16T15:25:42;24.70;40.60
2749;DHT22;1382;52.142;11.618;2022-10-16T15:28:10;24.70;40.80
2749;DHT22;1382;52.142;11.618;2022-10-16T15:30:38;24.70;41.30
2749;DHT22;1382;52.142;11.618;2022-10-16T15:33:12;24.60;41.20
2749;DHT22;1382;52.142;11.618;2022-10-16T15:35:39;24.70;41.10
2749;DHT22;1382;52.142;11.618;2022-10-16T15:38:08;24.60;41.60
2749;DHT22;1382;52.142;11.618;2022-10-16T15:40:35;24.70;41.30
2749;DHT22;1382;52.142;11.618;2022-10-16T15:43:02;24.60;41.30
2749;DHT22;1382;52.142;11.618;2022-10-16T15:45:29;24.60;41.90
2749;DHT22;1382;52.142;11.618;2022-10-16T15:47:56;24.70;41.20
2749;DHT22;1382;52.142;11.618;2022-10-16T15:50:25;24.60;41.70
2749;DHT22;1382;52.142;11.618;2022-10-16T15:52:52;24.60;41.80
2749;DHT22;1382;52.142;11.618;2022-10-16T15:55:19;24.60;42.20
2749;DHT22;1382;52.142;11.618;2022-10-16T15:57:46;24.50;42.10
2749;DHT22;1382;52.142;11.618;2022-10-16T16:00:15;24.30;42.20
2749;DHT22;1382;52.142;11.618;2022-10-16T16:02:43;24.30;42.10
2749;DHT22;1382;52.142;11.618;2022-10-16T16:05:10;24.40;42.40
2749;DHT22;1382;52.142;11.618;2022-10-16T16:07:39;24.20;42.30
2749;DHT22;1382;52.142;11.618;2022-10-16T16:10:08;24.30;42.60